sensor_id;sensor_type;location;lat;lon;timestamp;P1;P2;P0
44881;PMS5003;30612;38.304;23.786;2023-11-22T00:01:21;2.00;2.00;1.00
44881;PMS5003;30612;38.304;23.786;2023-11-22T00:03:49;2.00;2.00;1.00
44881;PMS5003;30612;38.304;23.786;2023-11-22T00:06:17;2.40;1.80;1.60
44881;PMS5003;30612;38.304;23.786;2023-11-22T00:08:47;3.20;3.20;1.00
44881;PMS5003;30612;38.304;23.786;2023-11-22T00:11:14;2.60;1.80;1.00
44881;PMS5003;30612;38.304;23.786;2023-11-22T00:13:41;1.00;1.00;1.00
44881;PMS5003;30612;38.304;23.786;2023-11-22T00:16:08;4.40;2.40;1.00
44881;PMS5003;30612;38.304;23.786;2023-11-22T00:18:36;1.20;1.20;1.00
44881;PMS5003;30612;38.304;23.786;2023-11-22T00:21:07;3.00;3.00;2.00
44881;PMS5003;30612;38.304;23.786;2023-11-22T00:23:34;2.00;1.20;1.00
44881;PMS5003;30612;38.304;23.786;2023-11-22T00:26:01;1.60;1.60;0.60
44881;PMS5003;30612;38.304;23.786;2023-11-22T00:28:29;1.00;1.00;1.00
44881;PMS5003;30612;38.304;23.786;2023-11-22T00:30:56;2.00;2.00;1.00
44881;PMS5003;30612;38.304;23.786;2023-11-22T00:33:24;4.20;4.20;1.80
44881;PMS5003;30612;38.304;23.786;2023-11-22T00:35:52;3.60;2.00;1.00
44881;PMS5003;30612;38.304;23.786;2023-11-22T00:38:23;2.00;2.00;2.00
44881;PMS5003;30612;38.304;23.786;2023-11-22T00:40:51;2.00;2.00;1.00
44881;PMS5003;30612;38.304;23.786;2023-11-22T00:43:19;3.60;1.80;1.00
44881;PMS5003;30612;38.304;23.786;2023-11-22T00:45:46;2.60;1.80;1.00
44881;PMS5003;30612;38.304;23.786;2023-11-22T00:48:13;2.00;1.60;1.00
44881;PMS5003;30612;38.304;23.786;2023-11-22T00:50:41;4.00;4.00;2.00
44881;PMS5003;30612;38.304;23.786;2023-11-22T00:53:08;2.80;2.80;1.60
44881;PMS5003;30612;38.304;23.786;2023-11-22T00:55:36;4.20;4.00;2.00
44881;PMS5003;30612;38.304;23.786;2023-11-22T00:58:03;0.60;0.00;0.00
44881;PMS5003;30612;38.304;23.786;2023-11-22T01:00:31;2.80;2.80;1.00
44881;PMS5003;30612;38.304;23.786;2023-11-22T01:02:58;4.00;1.80;1.20
44881;PMS5003;30612;38.304;23.786;2023-11-22T01:05:26;3.00;3.00;1.20
44881;PMS5003;30612;38.304;23.786;2023-11-22T01:07:53;4.00;2.00;1.20
44881;PMS5003;30612;38.304;23.786;2023-11-22T01:10:20;2.40;2.40;1.20
44881;PMS5003;30612;38.304;23.786;2023-11-22T01:12:48;3.20;3.20;1.00
44881;PMS5003;30612;38.304;23.786;2023-11-22T01:15:15;7.60;6.60;4.20
44881;PMS5003;30612;38.304;23.786;2023-11-22T01:17:43;8.00;5.80;3.60
44881;PMS5003;30612;38.304;23.786;2023-11-22T01:20:12;4.80;4.40;1.20
44881;PMS5003;30612;38.304;23.786;2023-11-22T01:22:41;4.00;4.00;2.00
44881;PMS5003;30612;38.304;23.786;2023-11-22T01:25:09;1.00;1.00;0.80
44881;PMS5003;30612;38.304;23.786;2023-11-22T01:27:36;3.20;1.40;1.00
44881;PMS5003;30612;38.304;23.786;2023-11-22T01:30:04;4.80;2.40;1.20
44881;PMS5003;30612;38.304;23.786;2023-11-22T01:32:34;6.60;2.00;0.40
44881;PMS5003;30612;38.304;23.786;2023-11-22T01:35:01;5.20;5.20;4.00
44881;PMS5003;30612;38.304;23.786;2023-11-22T01:37:29;4.40;4.40;3.20
44881;PMS5003;30612;38.304;23.786;2023-11-22T01:39:56;5.00;5.00;2.00
44881;PMS5003;30612;38.304;23.786;2023-11-22T01:42:24;4.40;4.40;1.20
44881;PMS5003;30612;38.304;23.786;2023-11-22T01:44:52;2.80;2.80;2.00
44881;PMS5003;30612;38.304;23.786;2023-11-22T01:47:22;4.80;4.80;2.00
44881;PMS5003;30612;38.304;23.786;2023-11-22T01:49:49;1.00;1.00;0.80
44881;PMS5003;30612;38.304;23.786;2023-11-22T01:52:16;3.40;3.40;1.20
44881;PMS5003;30612;38.304;23.786;2023-11-22T01:54:43;4.40;4.00;1.20
44881;PMS5003;30612;38.304;23.786;2023-11-22T01:57:11;1.80;1.80;1.00
44881;PMS5003;30612;38.304;23.786;2023-11-22T01:59:39;4.00;4.00;1.00
44881;PMS5003;30612;38.304;23.786;2023-11-22T02:02:07;2.40;2.40;1.40
44881;PMS5003;30612;38.304;23.786;2023-11-22T02:04:34;1.80;1.40;1.00
44881;PMS5003;30612;38.304;23.786;2023-11-22T02:07:03;2.20;1.60;1.00
44881;PMS5003;30612;38.304;23.786;2023-11-22T02:09:30;2.00;2.00;1.00
44881;PMS5003;30612;38.304;23.786;2023-11-22T02:11:57;2.00;2.00;1.00
44881;PMS5003;30612;38.304;23.786;2023-11-22T02:14:24;5.40;5.40;2.00
44881;PMS5003;30612;38.304;23.786;2023-11-22T02:16:51;2.00;2.00;1.40
44881;PMS5003;30612;38.304;23.786;2023-11-22T02:19:19;4.40;4.40;1.00
44881;PMS5003;30612;38.304;23.786;2023-11-22T02:21:46;4.40;4.40;1.80
44881;PMS5003;30612;38.304;23.786;2023-11-22T02:24:14;4.00;4.00;1.80
44881;PMS5003;30612;38.304;23.786;2023-11-22T02:26:45;2.80;2.80;1.80
44881;PMS5003;30612;38.304;23.786;2023-11-22T02:29:15;2.00;2.00;1.80
44881;PMS5003;30612;38.304;23.786;2023-11-22T02:31:42;2.00;2.00;1.60
44881;PMS5003;30612;38.304;23.786;2023-11-22T02:34:10;2.00;2.00;1.00
44881;PMS5003;30612;38.304;23.786;2023-11-22T02:36:37;3.60;1.40;1.00
44881;PMS5003;30612;38.304;23.786;2023-11-22T02:39:04;6.00;6.00;4.00
44881;PMS5003;30612;38.304;23.786;2023-11-22T02:41:33;3.20;3.20;1.00
44881;PMS5003;30612;38.304;23.786;2023-11-22T02:44:01;2.40;2.40;0.40
44881;PMS5003;30612;38.304;23.786;2023-11-22T02:46:29;5.00;4.00;1.00
44881;PMS5003;30612;38.304;23.786;2023-11-22T02:48:58;2.00;2.00;1.00
44881;PMS5003;30612;38.304;23.786;2023-11-22T02:51:26;4.80;2.00;1.00
44881;PMS5003;30612;38.304;23.786;2023-11-22T02:53:53;2.40;2.00;1.00
44881;PMS5003;30612;38.304;23.786;2023-11-22T02:56:20;3.60;3.60;1.20
44881;PMS5003;30612;38.304;23.786;2023-11-22T02:58:48;5.00;5.00;2.00
44881;PMS5003;30612;38.304;23.786;2023-11-22T03:01:15;2.80;2.80;1.00
44881;PMS5003;30612;38.304;23.786;2023-11-22T03:03:42;5.00;3.20;1.00
44881;PMS5003;30612;38.304;23.786;2023-11-22T03:06:10;1.80;1.80;1.00
44881;PMS5003;30612;38.304;23.786;2023-11-22T03:08:37;1.80;1.40;1.00
44881;PMS5003;30612;38.304;23.786;2023-11-22T03:11:04;1.20;1.00;1.00
44881;PMS5003;30612;38.304;23.786;2023-11-22T03:13:32;1.20;0.00;0.00
44881;PMS5003;30612;38.304;23.786;2023-11-22T03:15:59;2.40;1.20;1.00
44881;PMS5003;30612;38.304;23.786;2023-11-22T03:18:30;0.80;0.80;0.00
44881;PMS5003;30612;38.304;23.786;2023-11-22T03:20:59;1.60;1.00;1.00
44881;PMS5003;30612;38.304;23.786;2023-11-22T03:23:28;1.60;1.60;1.00
44881;PMS5003;30612;38.304;23.786;2023-11-22T03:25:55;1.00;0.00;0.00
44881;PMS5003;30612;38.304;23.786;2023-11-22T03:28:22;2.00;2.00;1.00
44881;PMS5003;30612;38.304;23.786;2023-11-22T03:30:49;2.40;2.40;1.00
44881;PMS5003;30612;38.304;23.786;2023-11-22T03:33:17;1.00;1.00;1.00
44881;PMS5003;30612;38.304;23.786;2023-11-22T03:35:44;2.40;2.40;1.00
44881;PMS5003;30612;38.304;23.786;2023-11-22T03:38:11;2.00;2.00;1.00
44881;PMS5003;30612;38.304;23.786;2023-11-22T03:40:40;4.20;4.00;1.00
44881;PMS5003;30612;38.304;23.786;2023-11-22T03:43:07;1.80;1.80;0.00
44881;PMS5003;30612;38.304;23.786;2023-11-22T03:45:37;2.00;2.00;0.80
44881;PMS5003;30612;38.304;23.786;2023-11-22T03:48:04;2.00;2.00;1.00
44881;PMS5003;30612;38.304;23.786;2023-11-22T03:50:31;1.40;1.40;0.60
44881;PMS5003;30612;38.304;23.786;2023-11-22T03:52:58;2.80;0.40;0.00
44881;PMS5003;30612;38.304;23.786;2023-11-22T03:55:26;1.60;1.60;0.80
44881;PMS5003;30612;38.304;23.786;2023-11-22T03:57:53;2.00;2.00;0.00
44881;PMS5003;30612;38.304;23.786;2023-11-22T04:00:20;4.00;4.00;1.60
44881;PMS5003;30612;38.304;23.786;2023-11-22T04:02:47;4.00;1.80;1.00
44881;PMS5003;30612;38.304;23.786;2023-11-22T04:05:15;2.00;2.00;1.00
44881;PMS5003;30612;38.304;23.786;2023-11-22T04:07:42;2.00;1.40;1.00
44881;PMS5003;30612;38.304;23.786;2023-11-22T04:10:09;2.00;2.00;1.80
44881;PMS5003;30612;38.304;23.786;2023-11-22T04:12:36;2.40;2.40;1.60
44881;PMS5003;30612;38.304;23.786;2023-11-22T04:15:04;4.60;2.00;1.00
44881;PMS5003;30612;38.304;23.786;2023-11-22T04:17:36;1.20;1.00;1.00
44881;PMS5003;30612;38.304;23.786;2023-11-22T04:20:07;2.00;2.00;1.00
44881;PMS5003;30612;38.304;23.786;2023-11-22T04:22:36;1.00;1.00;0.00
44881;PMS5003;30612;38.304;23.786;2023-11-22T04:25:04;1.00;1.00;0.00
44881;PMS5003;30612;38.304;23.786;2023-11-22T04:27:32;2.00;2.00;1.00
44881;PMS5003;30612;38.304;23.786;2023-11-22T04:30:00;1.20;1.20;0.20
44881;PMS5003;30612;38.304;23.786;2023-11-22T04:32:27;1.60;1.60;1.00
44881;PMS5003;30612;38.304;23.786;2023-11-22T04:34:55;1.20;1.20;0.00
44881;PMS5003;30612;38.304;23.786;2023-11-22T04:37:23;2.40;1.40;1.00
44881;PMS5003;30612;38.304;23.786;2023-11-22T04:39:53;1.00;1.00;0.20
44881;PMS5003;30612;38.304;23.786;2023-11-22T04:42:20;1.00;1.00;0.20
44881;PMS5003;30612;38.304;23.786;2023-11-22T04:44:49;0.00;0.00;0.00
44881;PMS5003;30612;38.304;23.786;2023-11-22T04:47:16;0.80;0.80;0.00
44881;PMS5003;30612;38.304;23.786;2023-11-22T04:49:44;1.00;1.00;1.00
44881;PMS5003;30612;38.304;23.786;2023-11-22T04:52:11;1.00;1.00;0.60
44881;PMS5003;30612;38.304;23.786;2023-11-22T04:54:39;1.60;1.60;0.00
44881;PMS5003;30612;38.304;23.786;2023-11-22T04:57:06;1.00;1.00;1.00
44881;PMS5003;30612;38.304;23.786;2023-11-22T04:59:33;1.80;1.80;1.00
44881;PMS5003;30612;38.304;23.786;2023-11-22T05:02:00;0.60;0.60;0.00
44881;PMS5003;30612;38.304;23.786;2023-11-22T05:04:28;1.20;1.20;1.00
44881;PMS5003;30612;38.304;23.786;2023-11-22T05:06:55;2.00;2.00;1.00
44881;PMS5003;30612;38.304;23.786;2023-11-22T05:09:23;1.00;1.00;0.60
44881;PMS5003;30612;38.304;23.786;2023-11-22T05:11:50;0.00;0.00;0.00
44881;PMS5003;30612;38.304;23.786;2023-11-22T05:14:21;2.00;2.00;0.00
44881;PMS5003;30612;38.304;23.786;2023-11-22T05:16:48;1.00;1.00;0.00
44881;PMS5003;30612;38.304;23.786;2023-11-22T05:19:16;1.00;1.00;0.00
44881;PMS5003;30612;38.304;23.786;2023-11-22T05:21:43;1.60;1.00;0.80
44881;PMS5003;30612;38.304;23.786;2023-11-22T05:24:10;1.40;1.40;0.40
44881;PMS5003;30612;38.304;23.786;2023-11-22T05:26:37;1.20;1.00;0.00
44881;PMS5003;30612;38.304;23.786;2023-11-22T05:29:04;0.00;0.00;0.00
44881;PMS5003;30612;38.304;23.786;2023-11-22T05:31:32;0.60;0.60;0.00
44881;PMS5003;30612;38.304;23.786;2023-11-22T05:33:59;0.00;0.00;0.00
44881;PMS5003;30612;38.304;23.786;2023-11-22T05:36:26;1.00;1.00;0.00
44881;PMS5003;30612;38.304;23.786;2023-11-22T05:38:53;2.00;2.00;1.00
44881;PMS5003;30612;38.304;23.786;2023-11-22T05:41:21;1.00;1.00;0.20
44881;PMS5003;30612;38.304;23.786;2023-11-22T05:43:48;0.80;0.60;0.00
44881;PMS5003;30612;38.304;23.786;2023-11-22T05:46:15;0.40;0.40;0.00
44881;PMS5003;30612;38.304;23.786;2023-11-22T05:48:48;1.00;1.00;0.00
44881;PMS5003;30612;38.304;23.786;2023-11-22T05:51:16;1.00;1.00;0.00
44881;PMS5003;30612;38.304;23.786;2023-11-22T05:53:44;1.00;1.00;0.00
44881;PMS5003;30612;38.304;23.786;2023-11-22T05:56:12;2.00;2.00;0.80
44881;PMS5003;30612;38.304;23.786;2023-11-22T05:58:39;1.00;1.00;0.00
44881;PMS5003;30612;38.304;23.786;2023-11-22T06:01:07;1.00;1.00;0.00
44881;PMS5003;30612;38.304;23.786;2023-11-22T06:03:35;1.80;1.80;0.00
44881;PMS5003;30612;38.304;23.786;2023-11-22T06:06:03;2.00;2.00;1.00
44881;PMS5003;30612;38.304;23.786;2023-11-22T06:08:30;1.40;0.40;0.00
44881;PMS5003;30612;38.304;23.786;2023-11-22T06:10:59;1.20;1.00;0.00
44881;PMS5003;30612;38.304;23.786;2023-11-22T06:13:26;2.00;2.00;1.00
44881;PMS5003;30612;38.304;23.786;2023-11-22T06:15:54;1.40;1.40;0.60
44881;PMS5003;30612;38.304;23.786;2023-11-22T06:18:21;1.00;1.00;1.00
44881;PMS5003;30612;38.304;23.786;2023-11-22T06:20:48;0.80;0.80;0.00
44881;PMS5003;30612;38.304;23.786;2023-11-22T06:23:16;1.00;1.00;0.00
44881;PMS5003;30612;38.304;23.786;2023-11-22T06:25:43;1.20;1.00;0.00
44881;PMS5003;30612;38.304;23.786;2023-11-22T06:28:10;4.20;2.40;1.60
44881;PMS5003;30612;38.304;23.786;2023-11-22T06:30:38;1.00;1.00;0.60
44881;PMS5003;30612;38.304;23.786;2023-11-22T06:33:05;2.40;2.40;1.00
44881;PMS5003;30612;38.304;23.786;2023-11-22T06:35:32;1.80;1.40;1.00
44881;PMS5003;30612;38.304;23.786;2023-11-22T06:37:59;2.00;2.00;1.00
44881;PMS5003;30612;38.304;23.786;2023-11-22T06:40:27;1.60;1.60;1.00
44881;PMS5003;30612;38.304;23.786;2023-11-22T06:42:56;1.00;1.00;1.00
44881;PMS5003;30612;38.304;23.786;2023-11-22T06:45:23;1.80;1.80;1.00
44881;PMS5003;30612;38.304;23.786;2023-11-22T06:47:50;2.20;1.40;1.00
44881;PMS5003;30612;38.304;23.786;2023-11-22T06:50:18;1.40;1.40;1.00
44881;PMS5003;30612;38.304;23.786;2023-11-22T06:52:45;1.00;1.00;0.00
44881;PMS5003;30612;38.304;23.786;2023-11-22T06:55:16;1.00;1.00;0.00
44881;PMS5003;30612;38.304;23.786;2023-11-22T06:57:43;0.60;0.60;0.00
44881;PMS5003;30612;38.304;23.786;2023-11-22T07:00:10;2.00;1.00;0.40
44881;PMS5003;30612;38.304;23.786;2023-11-22T07:02:39;1.00;1.00;0.00
44881;PMS5003;30612;38.304;23.786;2023-11-22T07:05:06;1.20;1.20;0.80
44881;PMS5003;30612;38.304;23.786;2023-11-22T07:07:36;0.60;0.60;0.00
44881;PMS5003;30612;38.304;23.786;2023-11-22T07:10:04;0.60;0.60;0.00
44881;PMS5003;30612;38.304;23.786;2023-11-22T07:12:35;1.00;1.00;0.00
44881;PMS5003;30612;38.304;23.786;2023-11-22T07:15:02;0.00;0.00;0.00
44881;PMS5003;30612;38.304;23.786;2023-11-22T07:17:30;1.00;1.00;1.00
44881;PMS5003;30612;38.304;23.786;2023-11-22T07:19:57;1.00;1.00;1.00
44881;PMS5003;30612;38.304;23.786;2023-11-22T07:22:24;1.00;1.00;0.80
44881;PMS5003;30612;38.304;23.786;2023-11-22T07:24:53;2.00;2.00;1.00
44881;PMS5003;30612;38.304;23.786;2023-11-22T07:27:26;1.60;1.60;0.80
44881;PMS5003;30612;38.304;23.786;2023-11-22T07:29:54;1.60;1.60;0.80
44881;PMS5003;30612;38.304;23.786;2023-11-22T07:32:21;1.60;1.60;1.00
44881;PMS5003;30612;38.304;23.786;2023-11-22T07:34:48;1.40;1.40;0.00
44881;PMS5003;30612;38.304;23.786;2023-11-22T07:37:16;1.60;1.60;1.00
44881;PMS5003;30612;38.304;23.786;2023-11-22T07:39:44;1.00;1.00;0.00
44881;PMS5003;30612;38.304;23.786;2023-11-22T07:42:11;1.40;1.20;1.00
44881;PMS5003;30612;38.304;23.786;2023-11-22T07:44:39;2.00;2.00;1.00
44881;PMS5003;30612;38.304;23.786;2023-11-22T07:47:09;1.00;1.00;0.80
44881;PMS5003;30612;38.304;23.786;2023-11-22T07:49:40;2.40;2.40;1.00
44881;PMS5003;30612;38.304;23.786;2023-11-22T07:52:09;2.00;2.00;1.60
44881;PMS5003;30612;38.304;23.786;2023-11-22T07:54:41;2.00;2.00;1.40
44881;PMS5003;30612;38.304;23.786;2023-11-22T07:57:08;2.00;2.00;1.00
44881;PMS5003;30612;38.304;23.786;2023-11-22T07:59:35;1.60;1.60;1.00
44881;PMS5003;30612;38.304;23.786;2023-11-22T08:02:04;2.00;2.00;1.00
44881;PMS5003;30612;38.304;23.786;2023-11-22T08:04:38;1.60;1.60;1.20
44881;PMS5003;30612;38.304;23.786;2023-11-22T08:07:07;1.00;1.00;0.00
44881;PMS5003;30612;38.304;23.786;2023-11-22T08:09:34;3.00;1.80;1.00
44881;PMS5003;30612;38.304;23.786;2023-11-22T08:12:02;3.20;3.20;2.00
44881;PMS5003;30612;38.304;23.786;2023-11-22T08:14:32;3.00;3.00;1.00
44881;PMS5003;30612;38.304;23.786;2023-11-22T08:16:59;1.00;1.00;1.00
44881;PMS5003;30612;38.304;23.786;2023-11-22T08:19:27;2.00;1.60;1.00
44881;PMS5003;30612;38.304;23.786;2023-11-22T08:21:54;1.80;1.80;0.00
44881;PMS5003;30612;38.304;23.786;2023-11-22T08:24:22;2.20;2.20;1.60
44881;PMS5003;30612;38.304;23.786;2023-11-22T08:26:50;2.00;1.00;0.80
44881;PMS5003;30612;38.304;23.786;2023-11-22T08:29:17;1.80;1.80;0.00
44881;PMS5003;30612;38.304;23.786;2023-11-22T08:31:45;1.00;1.00;0.80
44881;PMS5003;30612;38.304;23.786;2023-11-22T08:34:13;1.60;1.60;1.00
44881;PMS5003;30612;38.304;23.786;2023-11-22T08:36:40;2.40;2.40;1.00
44881;PMS5003;30612;38.304;23.786;2023-11-22T08:39:07;3.00;2.00;1.00
44881;PMS5003;30612;38.304;23.786;2023-11-22T08:41:34;1.00;1.00;1.00
44881;PMS5003;30612;38.304;23.786;2023-11-22T08:44:01;1.40;1.40;1.00
44881;PMS5003;30612;38.304;23.786;2023-11-22T08:46:29;2.00;2.00;1.00
44881;PMS5003;30612;38.304;23.786;2023-11-22T08:48:56;2.00;2.00;0.60
44881;PMS5003;30612;38.304;23.786;2023-11-22T08:51:24;0.80;0.80;0.00
44881;PMS5003;30612;38.304;23.786;2023-11-22T08:53:51;1.00;1.00;0.20
44881;PMS5003;30612;38.304;23.786;2023-11-22T08:56:19;1.40;1.00;1.00
44881;PMS5003;30612;38.304;23.786;2023-11-22T08:58:47;1.60;1.20;0.00
44881;PMS5003;30612;38.304;23.786;2023-11-22T09:01:14;2.20;2.20;1.00
44881;PMS5003;30612;38.304;23.786;2023-11-22T09:03:42;1.60;1.60;1.00
44881;PMS5003;30612;38.304;23.786;2023-11-22T09:06:10;2.20;2.20;1.60
44881;PMS5003;30612;38.304;23.786;2023-11-22T09:08:38;2.20;2.00;1.00
44881;PMS5003;30612;38.304;23.786;2023-11-22T09:11:05;2.60;2.60;1.80
44881;PMS5003;30612;38.304;23.786;2023-11-22T09:13:33;2.00;2.00;1.00
44881;PMS5003;30612;38.304;23.786;2023-11-22T09:16:02;2.40;2.40;1.60
44881;PMS5003;30612;38.304;23.786;2023-11-22T09:18:32;3.00;3.00;1.80
44881;PMS5003;30612;38.304;23.786;2023-11-22T09:20:59;1.00;1.00;0.00
44881;PMS5003;30612;38.304;23.786;2023-11-22T09:23:26;2.00;2.00;1.00
44881;PMS5003;30612;38.304;23.786;2023-11-22T09:25:54;4.20;3.80;2.20
44881;PMS5003;30612;38.304;23.786;2023-11-22T09:28:21;6.60;4.00;3.00
44881;PMS5003;30612;38.304;23.786;2023-11-22T09:30:48;9.20;9.00;6.40
44881;PMS5003;30612;38.304;23.786;2023-11-22T09:33:16;10.40;9.80;5.40
44881;PMS5003;30612;38.304;23.786;2023-11-22T09:35:44;9.40;8.20;4.40
44881;PMS5003;30612;38.304;23.786;2023-11-22T09:38:13;4.80;4.00;3.00
44881;PMS5003;30612;38.304;23.786;2023-11-22T09:40:44;4.40;3.20;2.00
44881;PMS5003;30612;38.304;23.786;2023-11-22T09:43:13;2.00;2.00;1.00
44881;PMS5003;30612;38.304;23.786;2023-11-22T09:45:46;1.00;1.00;0.80
44881;PMS5003;30612;38.304;23.786;2023-11-22T09:48:21;2.00;2.00;1.00
44881;PMS5003;30612;38.304;23.786;2023-11-22T09:56:09;1.00;1.00;0.60
44881;PMS5003;30612;38.304;23.786;2023-11-22T09:58:38;0.00;0.00;0.00
44881;PMS5003;30612;38.304;23.786;2023-11-22T10:01:11;0.00;0.00;0.00
44881;PMS5003;30612;38.304;23.786;2023-11-22T10:03:40;0.80;0.80;0.00
44881;PMS5003;30612;38.304;23.786;2023-11-22T10:06:08;0.20;0.20;0.00
44881;PMS5003;30612;38.304;23.786;2023-11-22T10:08:35;0.00;0.00;0.00
44881;PMS5003;30612;38.304;23.786;2023-11-22T10:11:04;1.60;1.60;0.40
44881;PMS5003;30612;38.304;23.786;2023-11-22T10:13:31;0.00;0.00;0.00
44881;PMS5003;30612;38.304;23.786;2023-11-22T10:16:11;0.00;0.00;0.00
44881;PMS5003;30612;38.304;23.786;2023-11-22T10:18:41;0.00;0.00;0.00
44881;PMS5003;30612;38.304;23.786;2023-11-22T10:21:20;0.40;0.40;0.00
44881;PMS5003;30612;38.304;23.786;2023-11-22T10:23:48;0.00;0.00;0.00
44881;PMS5003;30612;38.304;23.786;2023-11-22T10:26:15;2.00;1.00;0.00
44881;PMS5003;30612;38.304;23.786;2023-11-22T10:28:43;1.00;1.00;1.00
44881;PMS5003;30612;38.304;23.786;2023-11-22T10:31:11;2.00;2.00;1.00
44881;PMS5003;30612;38.304;23.786;2023-11-22T10:33:39;1.00;1.00;0.20
44881;PMS5003;30612;38.304;23.786;2023-11-22T10:36:09;1.80;1.80;0.00
44881;PMS5003;30612;38.304;23.786;2023-11-22T10:38:36;0.20;0.20;0.00
44881;PMS5003;30612;38.304;23.786;2023-11-22T10:41:07;1.60;1.60;1.00
44881;PMS5003;30612;38.304;23.786;2023-11-22T10:43:35;2.20;0.80;0.00
44881;PMS5003;30612;38.304;23.786;2023-11-22T10:46:02;0.60;0.60;0.00
44881;PMS5003;30612;38.304;23.786;2023-11-22T10:48:32;0.00;0.00;0.00
44881;PMS5003;30612;38.304;23.786;2023-11-22T10:51:03;0.20;0.00;0.00
44881;PMS5003;30612;38.304;23.786;2023-11-22T10:53:38;2.60;1.00;0.20
44881;PMS5003;30612;38.304;23.786;2023-11-22T10:56:17;0.00;0.00;0.00
44881;PMS5003;30612;38.304;23.786;2023-11-22T10:58:52;1.00;0.40;0.00
44881;PMS5003;30612;38.304;23.786;2023-11-22T11:01:25;0.20;0.20;0.00
44881;PMS5003;30612;38.304;23.786;2023-11-22T11:06:38;0.40;0.40;0.00
44881;PMS5003;30612;38.304;23.786;2023-11-22T11:09:07;0.60;0.60;0.00
44881;PMS5003;30612;38.304;23.786;2023-11-22T11:11:36;1.00;1.00;0.20
44881;PMS5003;30612;38.304;23.786;2023-11-22T11:14:04;1.60;1.60;1.00
44881;PMS5003;30612;38.304;23.786;2023-11-22T11:16:35;0.00;0.00;0.00
44881;PMS5003;30612;38.304;23.786;2023-11-22T11:19:05;0.00;0.00;0.00
44881;PMS5003;30612;38.304;23.786;2023-11-22T11:21:34;1.80;1.00;0.00
44881;PMS5003;30612;38.304;23.786;2023-11-22T11:24:02;0.20;0.00;0.00
44881;PMS5003;30612;38.304;23.786;2023-11-22T11:26:31;0.00;0.00;0.00
44881;PMS5003;30612;38.304;23.786;2023-11-22T11:29:01;1.60;1.60;0.00
44881;PMS5003;30612;38.304;23.786;2023-11-22T11:31:34;2.00;0.00;0.00
44881;PMS5003;30612;38.304;23.786;2023-11-22T11:34:07;1.60;1.60;0.60
44881;PMS5003;30612;38.304;23.786;2023-11-22T11:36:36;1.00;1.00;1.00
44881;PMS5003;30612;38.304;23.786;2023-11-22T11:39:05;1.60;1.60;0.00
44881;PMS5003;30612;38.304;23.786;2023-11-22T11:41:42;1.00;1.00;0.00
44881;PMS5003;30612;38.304;23.786;2023-11-22T11:44:09;1.00;1.00;0.00
44881;PMS5003;30612;38.304;23.786;2023-11-22T11:46:38;0.40;0.40;0.00
44881;PMS5003;30612;38.304;23.786;2023-11-22T11:49:06;1.20;0.00;0.00
44881;PMS5003;30612;38.304;23.786;2023-11-22T11:51:37;1.00;1.00;0.00
44881;PMS5003;30612;38.304;23.786;2023-11-22T11:54:05;1.40;0.20;0.20
44881;PMS5003;30612;38.304;23.786;2023-11-22T11:56:35;1.00;1.00;0.00
44881;PMS5003;30612;38.304;23.786;2023-11-22T11:59:02;2.00;2.00;1.00
44881;PMS5003;30612;38.304;23.786;2023-11-22T12:01:30;1.00;1.00;0.00
44881;PMS5003;30612;38.304;23.786;2023-11-22T12:04:00;2.00;0.80;0.00
44881;PMS5003;30612;38.304;23.786;2023-11-22T12:06:28;1.00;1.00;1.00
44881;PMS5003;30612;38.304;23.786;2023-11-22T12:08:58;2.00;2.00;1.00
44881;PMS5003;30612;38.304;23.786;2023-11-22T12:11:25;0.00;0.00;0.00
44881;PMS5003;30612;38.304;23.786;2023-11-22T12:13:52;1.00;1.00;0.00
44881;PMS5003;30612;38.304;23.786;2023-11-22T12:16:20;1.00;1.00;1.00
44881;PMS5003;30612;38.304;23.786;2023-11-22T12:18:47;0.00;0.00;0.00
44881;PMS5003;30612;38.304;23.786;2023-11-22T12:21:16;2.00;2.00;0.60
44881;PMS5003;30612;38.304;23.786;2023-11-22T12:23:46;1.60;1.60;0.00
44881;PMS5003;30612;38.304;23.786;2023-11-22T12:26:16;1.20;1.00;0.40
44881;PMS5003;30612;38.304;23.786;2023-11-22T12:28:45;0.20;0.20;0.00
44881;PMS5003;30612;38.304;23.786;2023-11-22T12:31:29;2.00;1.00;0.00
44881;PMS5003;30612;38.304;23.786;2023-11-22T12:34:03;2.20;1.40;1.00
44881;PMS5003;30612;38.304;23.786;2023-11-22T12:36:34;1.80;1.00;0.40
44881;PMS5003;30612;38.304;23.786;2023-11-22T12:39:06;2.00;2.00;1.00
44881;PMS5003;30612;38.304;23.786;2023-11-22T12:41:34;1.00;1.00;0.00
44881;PMS5003;30612;38.304;23.786;2023-11-22T12:44:04;0.00;0.00;0.00
44881;PMS5003;30612;38.304;23.786;2023-11-22T12:46:49;1.00;1.00;0.00
44881;PMS5003;30612;38.304;23.786;2023-11-22T12:49:25;0.20;0.20;0.00
44881;PMS5003;30612;38.304;23.786;2023-11-22T12:51:55;1.00;1.00;0.00
44881;PMS5003;30612;38.304;23.786;2023-11-22T12:54:26;0.00;0.00;0.00
44881;PMS5003;30612;38.304;23.786;2023-11-22T12:56:53;1.00;1.00;0.80
44881;PMS5003;30612;38.304;23.786;2023-11-22T12:59:27;1.00;1.00;0.40
44881;PMS5003;30612;38.304;23.786;2023-11-22T13:01:54;1.00;1.00;1.00
44881;PMS5003;30612;38.304;23.786;2023-11-22T13:04:22;1.00;1.00;0.00
44881;PMS5003;30612;38.304;23.786;2023-11-22T13:06:50;2.00;2.00;1.00
44881;PMS5003;30612;38.304;23.786;2023-11-22T13:09:18;1.40;1.40;1.00
44881;PMS5003;30612;38.304;23.786;2023-11-22T13:11:45;3.00;3.00;2.00
44881;PMS5003;30612;38.304;23.786;2023-11-22T13:14:14;2.00;2.00;0.60
44881;PMS5003;30612;38.304;23.786;2023-11-22T13:16:41;2.40;2.40;1.00
44881;PMS5003;30612;38.304;23.786;2023-11-22T13:19:09;5.20;2.80;1.00
44881;PMS5003;30612;38.304;23.786;2023-11-22T13:21:36;2.60;2.00;1.00
44881;PMS5003;30612;38.304;23.786;2023-11-22T13:24:04;7.00;3.20;2.00
44881;PMS5003;30612;38.304;23.786;2023-11-22T13:26:33;2.40;2.00;1.00
44881;PMS5003;30612;38.304;23.786;2023-11-22T13:29:03;2.00;1.00;0.20
44881;PMS5003;30612;38.304;23.786;2023-11-22T13:31:30;0.80;0.80;0.00
44881;PMS5003;30612;38.304;23.786;2023-11-22T13:33:58;2.00;2.00;1.00
44881;PMS5003;30612;38.304;23.786;2023-11-22T13:36:25;2.00;1.40;1.00
44881;PMS5003;30612;38.304;23.786;2023-11-22T13:38:52;1.40;1.00;1.00
44881;PMS5003;30612;38.304;23.786;2023-11-22T13:41:22;1.20;1.20;1.00
44881;PMS5003;30612;38.304;23.786;2023-11-22T13:43:52;2.60;2.60;1.00
44881;PMS5003;30612;38.304;23.786;2023-11-22T13:46:19;2.00;2.00;1.00
44881;PMS5003;30612;38.304;23.786;2023-11-22T13:48:47;4.20;2.00;1.00
44881;PMS5003;30612;38.304;23.786;2023-11-22T13:51:14;1.80;1.80;0.80
44881;PMS5003;30612;38.304;23.786;2023-11-22T13:53:41;0.80;0.80;0.00
44881;PMS5003;30612;38.304;23.786;2023-11-22T13:56:11;1.60;1.00;0.60
44881;PMS5003;30612;38.304;23.786;2023-11-22T13:58:41;0.00;0.00;0.00
44881;PMS5003;30612;38.304;23.786;2023-11-22T14:01:08;2.00;2.00;1.00
44881;PMS5003;30612;38.304;23.786;2023-11-22T14:03:43;2.00;2.00;1.00
44881;PMS5003;30612;38.304;23.786;2023-11-22T14:06:11;0.80;0.80;0.00
44881;PMS5003;30612;38.304;23.786;2023-11-22T14:08:43;1.00;1.00;0.00
44881;PMS5003;30612;38.304;23.786;2023-11-22T14:11:12;0.00;0.00;0.00
44881;PMS5003;30612;38.304;23.786;2023-11-22T14:13:39;3.80;3.00;2.00
44881;PMS5003;30612;38.304;23.786;2023-11-22T14:16:07;2.80;2.80;2.00
44881;PMS5003;30612;38.304;23.786;2023-11-22T14:18:36;4.40;3.20;2.00
44881;PMS5003;30612;38.304;23.786;2023-11-22T14:21:03;2.80;2.80;1.00
44881;PMS5003;30612;38.304;23.786;2023-11-22T14:23:31;5.60;3.60;2.20